Southampton, MA

10:15 PM EST on January 16, 2017 (GMT -0500)
The Plains | | Change Station
Active Advisory: Winter Weather Advisory

Elev 264 ft 42.23 °N, 72.67 °W | Updated 42 seconds ago

Partly Cloudy
Partly Cloudy
32.5 °F
Feels Like 32 °F
N
0.0
Wind Variable Wind from SW
Gusts 0.0 mph

Today
High -- | Low -- °F
--% Chance of Precip.
Yesterday
High -- | Low -- °F
Precip. -- in
Pressure 30.28 in
Visibility 10.0 miles
Clouds Clear
Windchill 32 °F
Dew Point -2 °F
Humidity 22%
Rainfall 0.00 in
Snow Depth Not available.
7:16 AM 4:45 PM
Waning Gibbous, 76% visible
METAR KBAF 170253Z 16006KT 10SM CLR 01/M07 A3025 RMK AO2 SLP252 T00111067 58009
Pressure 30.28 in
Visibility 10.0 miles
Clouds Clear
Windchill 32 °F
Dew Point -2 °F
Humidity 22%
Rainfall 0.00 in
Snow Depth Not available.
7:16 AM 4:45 PM
Waning Gibbous, 76% visible
METAR KBAF 170253Z 16006KT 10SM CLR 01/M07 A3025 RMK AO2 SLP252 T00111067 58009

Get Your Daily Forecast Email!

Thanks for signing up!

Be on the lookout for a verification email in your inbox.

You'll start receiving the daily forecast at 8 AM.

×

10-Day Weather Forecast

Almanac

Astronomy

Jan. 16, 2017 Rise Set
Actual Time
Civil Twilight
Nautical Twilight
Astronomical Twilight
Moon
Length of Visible Light
Length of Day
Tomorrow will be .
, % of the Moon is Illuminated

Today's Extremes

State Highs State Lows

Community

WunderPhotos

Upload Photos

1,962,540 photos uploaded!

WunderBlog® & News

Nearby

Air Quality

  Air Quality AQ Index Pollutant
Not available.

Snow Depth

Station Depth Elevation

Earthquake Activity

City Distance Mag. Time & Date
Minimum magnitude displayed is 2.5.

Coastal Water Temperatures

Place Temperature

Stations

Nearby Weather Stations

Station Location Temp. Windchill Dew Point Humidity Wind Precip. Elev Updated Type
                   

Watches & Warnings

Winter Weather Advisory
Issued: 4:21 PM EST Jan. 16, 2017 – National Weather Service

... Winter Weather Advisory now in effect from 1 PM Tuesday to
7 am EST Wednesday...

* locations... include portions of western and central
Massachusetts... including the Metro areas of Springfield and
Worcester.

* Hazard types... include snow... sleet... and freezing rain.

* Accumulations... snow accumulation of 1 to 3 inches... along with
up to one tenth of an inch of ice accretion.

* Timing... late afternoon Tuesday into early Wednesday.

* Impacts... wintry precipitation will likely result in hazardous
travel conditions on untreated roads... especially bridges...
and overpasses. Parking lots and sidewalks will become
slippery as well.

Precautionary/preparedness actions...

A Winter Weather Advisory means that periods of snow... sleet... or
freezing rain will cause travel difficulties. Be prepared for
slippery roads and limited visibilities... and use caution while
driving.